North Uniontown, Ohio
Current Conditions -  °F | °C
As of 1:54 PM on Friday 28 Nov 2014 (Local Time) from KILN Reporting Station
Clear Clear  
Wind Chill: 23°   Ceiling: Unl
Heat Index: 33°   Visibility: 10mi
Dew Point: 19°   Wind: 14mph
Humidity: 56%   Direction: 180°S
Pressure: 30.24"   Gusts: NA
Location:  39.1546°N, 83.569°W
Report Text: KILN 281854Z AUTO 18012KT 10SM CLR 01/M07 A3024 RMK AO2 SLP269 T00061072
Loading
Personal Weather Stations






























Interactive Weather Map New forecast layout! Learn more

10-Day Weather Forecast

Advertisements
Track Severe Weather on mobile